Time;durP1;ratioP1;P1;durP2;ratioP2;P2;SDS_P1;SDS_P2;PMS_P1;PMS_P2;Temp;Humidity;BMP_temperature;BMP_pressure;BME280_temperature;BME280_humidity;BME280_pressure;Samples;Min_cycle;Max_cycle;Signal;HPM_P1;HPM_P2
2021/12/06 00:02:06;;;;;;;;;;;;;;;3.40;82.35;97195.11;1733804;81;24472;-83
2021/12/06 00:04:36;;;;;;;;;;;;;;;3.36;82.36;97197.52;1719590;81;20208;-83
2021/12/06 00:07:05;;;;;;;;;;;;;;;3.34;82.41;97191.14;1739107;80;25618;-83
2021/12/06 00:09:34;;;;;;;;;;;;;;;3.40;82.46;97199.45;1739637;81;22857;-83
2021/12/06 00:12:02;;;;;;;;;;;;;;;3.41;82.52;97192.89;1737909;80;25985;-83
2021/12/06 00:14:29;;;;;;;;;;;;;;;3.45;82.57;97196.95;1736294;81;23962;-83
2021/12/06 00:16:58;;;;;;;;;;;;;;;3.50;82.63;97200.08;1752231;81;20225;-83
2021/12/06 00:19:25;;;;;;;;;;;;;;;3.61;82.70;97204.13;1757309;80;24754;-83
2021/12/06 00:21:51;;;;;;;;;;;;;;;3.62;82.77;97208.39;1753481;81;23225;-83
2021/12/06 00:24:17;;;;;;;;;;;;;;;3.62;82.82;97211.44;1754167;81;26043;-83
2021/12/06 00:26:45;;;;;;;;;;;;;;;3.62;82.86;97205.80;1752213;81;24040;-83
2021/12/06 00:29:15;;;;;;;;;;;;;;;3.62;82.90;97205.80;1755520;81;20217;-83
2021/12/06 00:31:41;;;;;;;;;;;;;;;3.74;82.96;97205.05;1734307;80;21854;-82
2021/12/06 00:34:11;;;;;;;;;;;;;;;3.92;83.02;97207.42;1757994;80;22060;-83
2021/12/06 00:36:39;;;;;;;;;;;;;;;3.99;83.06;97209.97;1756032;81;26235;-83
2021/12/06 00:39:07;;;;;;;;;;;;;;;4.03;83.02;97215.34;1752681;81;25453;-84
2021/12/06 00:41:40;;;;;;;;;;;;;;;3.97;83.01;97220.44;1757791;80;20155;-84
2021/12/06 00:44:12;;;;;;;;;;;;;;;3.89;82.95;97218.78;1754990;81;20187;-84
2021/12/06 00:46:37;;;;;;;;;;;;;;;3.81;82.91;97215.02;1755557;81;21968;-84
2021/12/06 00:49:05;;;;;;;;;;;;;;;3.75;82.85;97218.82;1756769;80;25962;-83
2021/12/06 00:51:31;;;;;;;;;;;;;;;3.68;82.82;97213.19;1747152;81;24475;-82
2021/12/06 00:53:58;;;;;;;;;;;;;;;3.62;82.76;97217.44;1752639;81;20313;-82
2021/12/06 00:56:24;;;;;;;;;;;;;;;3.61;82.74;97224.00;1756029;81;24911;-84
2021/12/06 00:58:50;;;;;;;;;;;;;;;3.54;82.71;97226.16;1756991;81;22765;-84
2021/12/06 01:01:16;;;;;;;;;;;;;;;3.55;82.69;97225.20;1744310;80;26157;-84
2021/12/06 01:03:44;;;;;;;;;;;;;;;3.56;82.72;97237.67;1735389;81;20191;-84
2021/12/06 01:06:11;;;;;;;;;;;;;;;3.59;82.75;97238.34;1751629;81;20539;-84
2021/12/06 01:08:43;;;;;;;;;;;;;;;3.55;82.76;97244.59;1758251;81;20469;-84
2021/12/06 01:11:10;;;;;;;;;;;;;;;3.43;82.80;97241.48;1752097;80;22090;-84
2021/12/06 01:13:36;;;;;;;;;;;;;;;3.34;82.79;97240.73;1749295;81;26145;-84
2021/12/06 01:16:02;;;;;;;;;;;;;;;3.27;82.81;97236.87;1701083;83;20252;-84
2021/12/06 01:18:28;;;;;;;;;;;;;;;3.23;82.82;97235.36;1741505;81;21810;-85
2021/12/06 01:21:07;;;;;;;;;;;;;;;3.18;82.83;97227.89;1748558;81;25761;-84
2021/12/06 01:23:29;;;;;;;;;;;;;;;3.19;82.86;97226.14;1740771;81;22003;-84
2021/12/06 01:26:24;;;;;;;;;;;;;;;3.20;82.92;97217.01;1749814;81;26118;-84
2021/12/06 01:31:06;;;;;;;;;;;;;;;3.46;83.08;97228.36;1758429;80;20239;-84
2021/12/06 01:39:18;;;;;;;;;;;;;;;3.74;83.29;97219.28;1750772;81;26026;-84
2021/12/06 01:41:45;;;;;;;;;;;;;;;3.79;83.38;97214.65;1760993;80;25302;-84
2021/12/06 01:44:14;;;;;;;;;;;;;;;3.81;83.41;97218.91;1743673;81;20255;-84
2021/12/06 01:46:42;;;;;;;;;;;;;;;3.79;83.43;97221.12;1740230;81;25427;-83
2021/12/06 01:49:09;;;;;;;;;;;;;;;3.74;83.42;97227.05;1746478;80;22566;-84
2021/12/06 01:51:36;;;;;;;;;;;;;;;3.71;83.43;97231.09;1758650;80;26582;-84
2021/12/06 01:54:03;;;;;;;;;;;;;;;3.64;83.44;97225.95;1758170;80;25094;-84
2021/12/06 01:56:29;;;;;;;;;;;;;;;3.65;83.45;97228.91;1754096;81;20141;-84
2021/12/06 01:58:55;;;;;;;;;;;;;;;3.70;83.49;97235.92;1748850;81;20248;-84
2021/12/06 02:01:21;;;;;;;;;;;;;;;3.74;83.50;97230.92;1756087;80;22010;-84
2021/12/06 02:03:47;;;;;;;;;;;;;;;3.71;83.52;97234.98;1753406;81;26027;-84
2021/12/06 02:06:15;;;;;;;;;;;;;;;3.64;83.51;97235.00;1748585;81;24507;-84
2021/12/06 02:08:48;;;;;;;;;;;;;;;3.67;83.49;97243.86;1755349;81;20470;-84
2021/12/06 02:11:15;;;;;;;;;;;;;;;3.74;83.49;97246.91;1737158;81;25256;-84
2021/12/06 02:13:57;;;;;;;;;;;;;;;3.71;83.50;97247.08;1754168;81;22028;-85
2021/12/06 02:16:18;;;;;;;;;;;;;;;3.65;83.49;97246.19;1772852;79;26711;-85
2021/12/06 02:18:48;;;;;;;;;;;;;;;3.61;83.48;97239.52;1743257;81;24392;-85
2021/12/06 02:21:16;;;;;;;;;;;;;;;3.57;83.47;97245.34;1750765;80;20388;-84
2021/12/06 02:23:48;;;;;;;;;;;;;;;3.53;83.45;97247.77;1749082;81;25386;-84
2021/12/06 02:26:15;;;;;;;;;;;;;;;3.53;83.41;97248.22;1760187;80;22156;-85
2021/12/06 02:28:41;;;;;;;;;;;;;;;3.42;83.38;97252.75;1738786;81;25979;-84
2021/12/06 02:31:09;;;;;;;;;;;;;;;3.38;83.33;97249.50;1753085;81;24564;-84
2021/12/06 02:33:35;;;;;;;;;;;;;;;3.34;83.30;97258.83;1751841;80;20208;-85
2021/12/06 02:36:01;;;;;;;;;;;;;;;3.33;83.29;97263.62;1756124;81;24834;-84
2021/12/06 02:38:27;;;;;;;;;;;;;;;3.27;83.26;97265.30;1757645;80;21937;-84
2021/12/06 02:40:53;;;;;;;;;;;;;;;3.21;83.24;97256.61;1747096;80;26042;-84
2021/12/06 02:43:19;;;;;;;;;;;;;;;3.16;83.21;97256.89;1753727;81;20333;-84
2021/12/06 02:45:52;;;;;;;;;;;;;;;3.16;83.20;97268.52;1753804;81;20496;-84
2021/12/06 02:48:18;;;;;;;;;;;;;;;3.16;83.20;97269.81;1749324;81;25396;-84
2021/12/06 02:50:49;;;;;;;;;;;;;;;3.17;83.20;97274.04;1749469;81;21998;-84
2021/12/06 02:53:20;;;;;;;;;;;;;;;3.16;83.22;97271.56;1743638;80;22387;-84
2021/12/06 02:55:53;;;;;;;;;;;;;;;3.13;83.21;97276.44;1758344;80;24478;-85
2021/12/06 02:58:44;;;;;;;;;;;;;;;3.10;83.22;97265.46;1753316;80;20304;-85
2021/12/06 03:00:51;;;;;;;;;;;;;;;3.07;83.22;97261.75;1747454;80;24803;-84
2021/12/06 03:03:18;;;;;;;;;;;;;;;2.99;83.19;97256.21;1750535;80;22701;-84
2021/12/06 03:05:45;;;;;;;;;;;;;;;2.92;83.20;97255.27;1754096;81;26807;-85
2021/12/06 03:08:15;;;;;;;;;;;;;;;2.91;83.20;97251.02;1757536;80;24492;-84
2021/12/06 03:10:41;;;;;;;;;;;;;;;2.87;83.20;97252.13;1753050;80;20241;-84
2021/12/06 03:13:07;;;;;;;;;;;;;;;2.83;83.20;97256.27;1753888;81;24761;-85
2021/12/06 03:15:34;;;;;;;;;;;;;;;2.81;83.20;97256.81;1752139;81;20262;-84
2021/12/06 03:18:06;;;;;;;;;;;;;;;2.81;83.20;97253.77;1756141;80;26300;-84
2021/12/06 03:20:36;;;;;;;;;;;;;;;2.75;83.20;97250.25;1752714;80;24565;-84
2021/12/06 03:23:00;;;;;;;;;;;;;;;2.69;83.20;97257.05;1742291;81;20183;-84
2021/12/06 03:25:26;;;;;;;;;;;;;;;2.63;83.19;97256.56;1755455;80;24827;-84
2021/12/06 03:27:52;;;;;;;;;;;;;;;2.55;83.19;97258.30;1755918;80;21968;-85
2021/12/06 03:30:18;;;;;;;;;;;;;;;2.50;83.20;97262.90;1757077;81;26146;-84
2021/12/06 03:32:44;;;;;;;;;;;;;;;2.50;83.19;97265.02;1750745;81;24245;-84
2021/12/06 03:35:13;;;;;;;;;;;;;;;2.52;83.20;97270.08;1756151;80;20486;-85
2021/12/06 03:37:40;;;;;;;;;;;;;;;2.46;83.25;97267.38;1749315;81;24884;-84
2021/12/06 03:40:06;;;;;;;;;;;;;;;2.44;83.26;97274.86;1749169;80;23057;-84
2021/12/06 03:42:33;;;;;;;;;;;;;;;2.41;83.29;97268.10;1757112;81;25956;-84
2021/12/06 03:44:59;;;;;;;;;;;;;;;2.37;83.30;97269.66;1750491;81;24409;-84
2021/12/06 03:47:27;;;;;;;;;;;;;;;2.28;83.33;97265.02;1754746;81;20162;-85
2021/12/06 03:49:53;;;;;;;;;;;;;;;2.28;83.36;97274.88;1744285;81;24975;-84
2021/12/06 03:52:19;;;;;;;;;;;;;;;2.25;83.39;97278.91;1746634;81;22763;-85
2021/12/06 03:54:46;;;;;;;;;;;;;;;2.21;83.41;97283.88;1757332;80;25967;-85
2021/12/06 03:57:12;;;;;;;;;;;;;;;2.18;83.45;97276.31;1755668;80;24704;-83
2021/12/06 03:59:43;;;;;;;;;;;;;;;2.13;83.48;97279.57;1758092;80;20290;-83
2021/12/06 04:02:07;;;;;;;;;;;;;;;2.12;83.52;97277.09;1750466;81;24784;-85
2021/12/06 04:04:33;;;;;;;;;;;;;;;2.08;83.56;97277.70;1749149;81;22096;-83
2021/12/06 04:06:59;;;;;;;;;;;;;;;2.03;83.59;97270.67;1754661;80;26033;-84
2021/12/06 04:09:32;;;;;;;;;;;;;;;2.00;83.64;97273.43;1756957;80;25370;-84
2021/12/06 04:11:56;;;;;;;;;;;;;;;1.97;83.68;97267.97;1748464;81;20382;-84
2021/12/06 04:14:24;;;;;;;;;;;;;;;1.95;83.72;97259.95;1747827;80;24748;-83
2021/12/06 04:16:50;;;;;;;;;;;;;;;1.90;83.77;97260.20;1756763;80;23112;-84
2021/12/06 04:19:16;;;;;;;;;;;;;;;1.90;83.79;97264.08;1755920;80;26012;-83
2021/12/06 04:21:43;;;;;;;;;;;;;;;1.89;83.85;97259.83;1754563;80;24485;-83
2021/12/06 04:24:10;;;;;;;;;;;;;;;1.87;83.90;97267.25;1755110;80;20291;-84
2021/12/06 04:26:36;;;;;;;;;;;;;;;1.81;83.94;97272.73;1760233;80;24660;-84
2021/12/06 04:29:02;;;;;;;;;;;;;;;1.81;84.01;97276.16;1752564;80;21950;-84
2021/12/06 04:31:30;;;;;;;;;;;;;;;1.80;84.07;97282.70;1748648;80;26066;-84
2021/12/06 04:33:58;;;;;;;;;;;;;;;1.78;84.11;97290.52;1753947;81;24501;-84
2021/12/06 04:36:26;;;;;;;;;;;;;;;1.81;84.18;97307.56;1733352;81;20182;-84
2021/12/06 04:38:55;;;;;;;;;;;;;;;1.86;84.24;97309.44;1746348;80;24874;-84
2021/12/06 04:41:28;;;;;;;;;;;;;;;1.90;84.33;97313.09;1750118;81;22034;-84
2021/12/06 04:43:55;;;;;;;;;;;;;;;1.90;84.40;97322.56;1750261;81;25975;-84
2021/12/06 04:46:24;;;;;;;;;;;;;;;1.87;84.48;97335.61;1747039;81;24564;-84
2021/12/06 04:48:52;;;;;;;;;;;;;;;1.89;84.53;97337.67;1733656;81;20290;-83
2021/12/06 04:51:24;;;;;;;;;;;;;;;1.89;84.59;97343.66;1762106;80;25622;-83
2021/12/06 04:53:49;;;;;;;;;;;;;;;1.86;84.63;97345.09;1771921;80;22030;-85
2021/12/06 04:56:20;;;;;;;;;;;;;;;1.77;84.66;97339.59;1757773;81;26067;-83
2021/12/06 04:58:50;;;;;;;;;;;;;;;1.75;84.69;97341.41;1747656;81;25401;-83
2021/12/06 05:01:17;;;;;;;;;;;;;;;1.71;84.70;97344.61;1753315;80;20211;-83
2021/12/06 05:03:44;;;;;;;;;;;;;;;1.64;84.73;97343.25;1751117;80;25669;-84
2021/12/06 05:06:12;;;;;;;;;;;;;;;1.57;84.74;97349.20;1743974;81;22099;-83
2021/12/06 05:08:39;;;;;;;;;;;;;;;1.52;84.75;97348.61;1750432;80;26395;-83
2021/12/06 05:11:07;;;;;;;;;;;;;;;1.47;84.78;97350.59;1751086;80;24733;-83
2021/12/06 05:13:34;;;;;;;;;;;;;;;1.45;84.81;97345.95;1756444;81;20261;-83
2021/12/06 05:16:00;;;;;;;;;;;;;;;1.45;84.87;97352.41;1738529;81;24926;-85
2021/12/06 05:18:26;;;;;;;;;;;;;;;1.45;84.91;97357.56;1748215;81;20833;-84
2021/12/06 05:20:53;;;;;;;;;;;;;;;1.48;84.99;97359.97;1751184;80;21018;-83
2021/12/06 05:23:19;;;;;;;;;;;;;;;1.51;85.05;97361.12;1750079;81;24423;-83
2021/12/06 05:25:48;;;;;;;;;;;;;;;1.51;85.08;97364.14;1756028;80;20290;-83
2021/12/06 05:28:15;;;;;;;;;;;;;;;1.48;85.15;97363.83;1748139;80;24691;-83
2021/12/06 05:30:43;;;;;;;;;;;;;;;1.49;85.20;97368.53;1754054;81;22096;-84
2021/12/06 05:33:17;;;;;;;;;;;;;;;1.48;85.25;97365.13;1762114;80;26670;-84
2021/12/06 05:35:37;;;;;;;;;;;;;;;1.47;85.33;97369.92;1758599;80;24744;-84
2021/12/06 05:38:03;;;;;;;;;;;;;;;1.50;85.37;97371.50;1754626;81;20220;-84
2021/12/06 05:40:31;;;;;;;;;;;;;;;1.48;85.42;97372.02;1751291;80;24835;-84
2021/12/06 05:42:58;;;;;;;;;;;;;;;1.48;85.47;97371.56;1758467;81;21953;-84
2021/12/06 05:45:24;;;;;;;;;;;;;;;1.52;85.52;97374.84;1754764;80;26019;-84
2021/12/06 05:47:51;;;;;;;;;;;;;;;1.54;85.59;97375.58;1751791;81;24523;-84
2021/12/06 05:50:22;;;;;;;;;;;;;;;1.51;85.60;97375.30;1754572;80;20357;-84
2021/12/06 05:52:54;;;;;;;;;;;;;;;1.54;85.65;97380.28;1757024;81;24774;-83
2021/12/06 05:55:21;;;;;;;;;;;;;;;1.58;85.72;97383.08;1757138;80;22009;-82
2021/12/06 05:57:47;;;;;;;;;;;;;;;1.58;85.76;97382.27;1749510;81;26014;-84
2021/12/06 06:00:15;;;;;;;;;;;;;;;1.49;85.79;97379.69;1759570;80;24541;-84
2021/12/06 06:02:44;;;;;;;;;;;;;;;1.50;85.79;97386.52;1750774;81;20469;-82
2021/12/06 06:05:10;;;;;;;;;;;;;;;1.50;85.81;97388.25;1755184;81;24857;-82
2021/12/06 06:07:36;;;;;;;;;;;;;;;1.47;85.87;97381.53;1755852;81;21930;-82
2021/12/06 06:10:03;;;;;;;;;;;;;;;1.50;85.90;97376.66;1752414;80;25899;-82
2021/12/06 06:12:29;;;;;;;;;;;;;;;1.49;85.94;97393.02;1737263;80;24454;-82
2021/12/06 06:14:58;;;;;;;;;;;;;;;1.47;85.97;97400.86;1752102;80;20238;-82
2021/12/06 06:17:24;;;;;;;;;;;;;;;1.45;85.97;97405.70;1743837;81;20277;-82
2021/12/06 06:19:52;;;;;;;;;;;;;;;1.43;85.98;97408.34;1748544;81;21982;-82
2021/12/06 06:22:19;;;;;;;;;;;;;;;1.44;86.02;97407.44;1744279;81;25959;-83
2021/12/06 06:24:50;;;;;;;;;;;;;;;1.47;86.06;97406.47;1745813;81;24423;-83
2021/12/06 06:27:16;;;;;;;;;;;;;;;1.52;86.12;97411.77;1753032;80;20212;-83
2021/12/06 06:29:47;;;;;;;;;;;;;;;1.57;86.17;97420.11;1759758;80;20170;-82
2021/12/06 06:32:13;;;;;;;;;;;;;;;1.68;86.25;97431.17;1751592;80;21997;-83
2021/12/06 06:34:41;;;;;;;;;;;;;;;1.67;86.31;97429.05;1757100;80;22157;-82
2021/12/06 06:37:10;;;;;;;;;;;;;;;1.67;86.33;97434.20;1762759;79;22502;-82
2021/12/06 06:39:37;;;;;;;;;;;;;;;1.66;86.38;97432.53;1756869;81;20135;-83
2021/12/06 06:42:04;;;;;;;;;;;;;;;1.65;86.40;97437.30;1751941;80;25605;-83
2021/12/06 06:44:30;;;;;;;;;;;;;;;1.72;86.43;97446.86;1754703;81;21951;-83
2021/12/06 06:46:56;;;;;;;;;;;;;;;1.75;86.47;97450.56;1756787;80;27220;-83
2021/12/06 06:49:25;;;;;;;;;;;;;;;1.75;86.51;97445.86;1757698;80;24519;-82
2021/12/06 06:51:51;;;;;;;;;;;;;;;1.71;86.53;97452.09;1750719;80;20277;-82
2021/12/06 06:54:19;;;;;;;;;;;;;;;1.73;86.56;97457.56;1762863;80;20244;-82
2021/12/06 06:56:50;;;;;;;;;;;;;;;1.73;86.57;97459.30;1750692;81;21988;-82
2021/12/06 06:59:15;;;;;;;;;;;;;;;1.72;86.59;97458.92;1755082;80;26835;-83
2021/12/06 07:01:42;;;;;;;;;;;;;;;1.69;86.60;97457.34;1754578;80;24433;-83
2021/12/06 07:04:08;;;;;;;;;;;;;;;1.73;86.61;97468.33;1756061;80;20342;-83
2021/12/06 07:06:38;;;;;;;;;;;;;;;1.74;86.63;97473.88;1751698;81;25222;-82
2021/12/06 07:09:05;;;;;;;;;;;;;;;1.75;86.63;97472.48;1755403;81;21915;-82
2021/12/06 07:11:31;;;;;;;;;;;;;;;1.73;86.65;97480.77;1756283;80;26026;-83
2021/12/06 07:13:58;;;;;;;;;;;;;;;1.78;86.67;97479.25;1757066;80;24563;-83
2021/12/06 07:16:24;;;;;;;;;;;;;;;1.82;86.69;97477.72;1756064;81;20202;-83
2021/12/06 07:18:50;;;;;;;;;;;;;;;1.85;86.74;97479.33;1751734;80;24774;-83
2021/12/06 07:21:17;;;;;;;;;;;;;;;1.88;86.76;97480.00;1751351;81;22024;-85
2021/12/06 07:23:45;;;;;;;;;;;;;;;1.95;86.82;97483.11;1749086;80;26653;-84
2021/12/06 07:26:13;;;;;;;;;;;;;;;1.97;86.85;97483.39;1742100;81;26304;-84
2021/12/06 07:28:40;;;;;;;;;;;;;;;2.01;86.87;97487.51;1752752;81;20212;-84
2021/12/06 07:31:08;;;;;;;;;;;;;;;2.08;86.91;97485.42;1758667;81;24651;-84
2021/12/06 07:33:34;;;;;;;;;;;;;;;2.12;86.94;97482.25;1758326;81;21983;-83
2021/12/06 07:36:01;;;;;;;;;;;;;;;2.14;86.97;97483.82;1753861;80;26029;-83
2021/12/06 07:38:29;;;;;;;;;;;;;;;2.14;87.00;97484.28;1759099;80;24240;-84
2021/12/06 07:41:01;;;;;;;;;;;;;;;2.21;87.04;97481.31;1753588;81;20165;-83
2021/12/06 07:43:27;;;;;;;;;;;;;;;2.21;87.06;97478.73;1749935;80;24889;-84
2021/12/06 07:45:53;;;;;;;;;;;;;;;2.26;87.09;97476.75;1749719;81;22029;-83
2021/12/06 07:48:20;;;;;;;;;;;;;;;2.28;87.10;97480.09;1755186;80;21030;-84
2021/12/06 07:50:46;;;;;;;;;;;;;;;2.27;87.11;97480.16;1757113;81;25168;-83
2021/12/06 07:53:17;;;;;;;;;;;;;;;2.29;87.15;97480.44;1753876;81;20160;-83
2021/12/06 07:55:43;;;;;;;;;;;;;;;2.34;87.16;97480.23;1713225;82;24739;-83
2021/12/06 07:58:10;;;;;;;;;;;;;;;2.43;87.15;97483.61;1673352;84;22144;-83
2021/12/06 08:00:40;;;;;;;;;;;;;;;2.51;87.16;97486.61;1686307;83;26099;-83
2021/12/06 08:03:08;;;;;;;;;;;;;;;2.53;87.18;97479.17;1675239;84;24662;-83
2021/12/06 08:05:36;;;;;;;;;;;;;;;2.57;87.15;97483.70;1711648;82;20295;-83
2021/12/06 08:08:11;;;;;;;;;;;;;;;2.58;87.14;97477.63;1741370;82;24753;-83
2021/12/06 08:10:39;;;;;;;;;;;;;;;2.60;87.14;97480.98;1732177;81;22021;-83
2021/12/06 08:13:05;;;;;;;;;;;;;;;2.62;87.12;97489.95;1742636;81;26620;-84
2021/12/06 08:15:32;;;;;;;;;;;;;;;2.62;87.11;97486.88;1744025;81;24267;-83
2021/12/06 08:17:58;;;;;;;;;;;;;;;2.60;87.06;97487.44;1726761;81;20276;-83
2021/12/06 08:20:24;;;;;;;;;;;;;;;2.61;87.03;97489.56;1742159;81;24940;-83
2021/12/06 08:22:51;;;;;;;;;;;;;;;2.59;86.97;97490.09;1740915;81;22037;-83
2021/12/06 08:25:17;;;;;;;;;;;;;;;2.57;86.96;97496.62;1742294;81;25955;-83
2021/12/06 08:27:43;;;;;;;;;;;;;;;2.55;86.91;97495.88;1745720;80;24528;-82
2021/12/06 08:30:11;;;;;;;;;;;;;;;2.52;86.87;97503.77;1745516;80;20219;-82
2021/12/06 08:32:37;;;;;;;;;;;;;;;2.49;86.83;97505.24;1730774;81;24765;-82
2021/12/06 08:35:06;;;;;;;;;;;;;;;2.43;86.77;97503.81;1738897;80;21418;-82
2021/12/06 08:37:32;;;;;;;;;;;;;;;2.37;86.69;97502.00;1744076;81;26047;-82
2021/12/06 08:39:58;;;;;;;;;;;;;;;2.23;86.60;97494.15;1743657;81;24397;-82
2021/12/06 08:42:24;;;;;;;;;;;;;;;2.33;86.61;97518.57;1733659;81;20261;-82
2021/12/06 08:44:51;;;;;;;;;;;;;;;2.32;86.57;97519.02;1744918;81;24822;-82
2021/12/06 08:47:17;;;;;;;;;;;;;;;2.27;86.51;97527.47;1730453;80;22088;-82
2021/12/06 08:49:44;;;;;;;;;;;;;;;2.23;86.49;97521.25;1746780;81;26073;-82
2021/12/06 08:52:10;;;;;;;;;;;;;;;2.16;86.44;97525.05;1745466;81;24411;-82
2021/12/06 08:54:36;;;;;;;;;;;;;;;2.10;86.42;97531.35;1736242;80;20219;-82
2021/12/06 08:57:06;;;;;;;;;;;;;;;2.06;86.40;97529.39;1732136;81;24807;-83
2021/12/06 08:59:32;;;;;;;;;;;;;;;2.04;86.39;97540.23;1740628;81;22079;-82
2021/12/06 09:02:01;;;;;;;;;;;;;;;2.02;86.38;97538.17;1742919;80;26075;-82
2021/12/06 09:04:33;;;;;;;;;;;;;;;1.98;86.34;97545.70;1746438;80;20214;-82
2021/12/06 09:06:58;;;;;;;;;;;;;;;1.96;86.33;97545.41;1737760;81;20304;-82
2021/12/06 09:09:27;;;;;;;;;;;;;;;1.96;86.35;97546.70;1740804;81;24767;-82
2021/12/06 09:11:53;;;;;;;;;;;;;;;1.94;86.37;97548.06;1732802;81;21996;-82
2021/12/06 09:14:19;;;;;;;;;;;;;;;1.96;86.37;97552.70;1736420;81;25909;-82
2021/12/06 09:16:45;;;;;;;;;;;;;;;1.98;86.42;97544.41;1734325;81;20258;-82
2021/12/06 09:19:17;;;;;;;;;;;;;;;2.01;86.45;97548.14;1740572;81;20206;-82
2021/12/06 09:21:43;;;;;;;;;;;;;;;1.99;86.48;97553.83;1731872;81;25581;-82
2021/12/06 09:24:11;;;;;;;;;;;;;;;1.98;86.50;97550.86;1746292;80;22085;-82
2021/12/06 09:26:37;;;;;;;;;;;;;;;2.00;86.52;97551.62;1731012;80;26038;-82
2021/12/06 09:29:04;;;;;;;;;;;;;;;1.98;86.53;97548.28;1745564;81;25205;-83
2021/12/06 09:31:30;;;;;;;;;;;;;;;1.94;86.54;97556.25;1741222;81;20275;-82
2021/12/06 09:33:59;;;;;;;;;;;;;;;1.90;86.53;97562.03;1743699;80;24920;-84
2021/12/06 09:36:26;;;;;;;;;;;;;;;1.89;86.52;97556.94;1742021;81;22510;-81
2021/12/06 09:38:53;;;;;;;;;;;;;;;1.87;86.53;97563.45;1741813;81;25834;-82
2021/12/06 09:41:22;;;;;;;;;;;;;;;1.84;86.53;97567.94;1738700;82;25279;-82
2021/12/06 09:43:49;;;;;;;;;;;;;;;1.83;86.53;97566.27;1723217;80;21216;-82
2021/12/06 09:46:16;;;;;;;;;;;;;;;1.80;86.56;97551.75;1736161;80;24975;-82
2021/12/06 09:48:43;;;;;;;;;;;;;;;1.80;86.56;97558.69;1728617;80;22002;-82
2021/12/06 09:51:11;;;;;;;;;;;;;;;1.80;86.59;97554.33;1731278;81;25968;-82
2021/12/06 09:53:39;;;;;;;;;;;;;;;1.81;86.61;97555.17;1741590;80;24591;-82
2021/12/06 09:56:07;;;;;;;;;;;;;;;1.76;86.61;97555.85;1745931;81;20298;-82
2021/12/06 09:58:35;;;;;;;;;;;;;;;1.79;86.65;97563.01;1740249;81;24899;-82
2021/12/06 10:01:03;;;;;;;;;;;;;;;1.84;86.69;97560.20;1725676;81;21955;-82
2021/12/06 10:03:30;;;;;;;;;;;;;;;1.80;86.71;97558.69;1733160;81;26646;-82
2021/12/06 10:06:02;;;;;;;;;;;;;;;1.78;86.74;97546.31;1727979;82;25226;-82
2021/12/06 10:08:25;;;;;;;;;;;;;;;1.78;86.77;97547.14;1738484;80;20272;-82
2021/12/06 10:10:51;;;;;;;;;;;;;;;1.75;86.77;97544.70;1744350;81;24765;-82
2021/12/06 10:13:17;;;;;;;;;;;;;;;1.77;86.80;97547.21;1731009;81;22772;-81
2021/12/06 10:15:43;;;;;;;;;;;;;;;1.74;86.81;97543.50;1729007;81;26697;-82
2021/12/06 10:18:10;;;;;;;;;;;;;;;1.69;86.80;97536.80;1735843;81;24006;-82
2021/12/06 10:20:36;;;;;;;;;;;;;;;1.77;86.84;97539.47;1730158;81;20210;-82
2021/12/06 10:23:02;;;;;;;;;;;;;;;1.81;86.86;97543.11;1742638;81;24780;-82
2021/12/06 10:25:36;;;;;;;;;;;;;;;1.86;86.91;97545.00;1746249;82;21968;-82
2021/12/06 10:28:05;;;;;;;;;;;;;;;1.89;86.96;97544.03;1740129;80;21285;-82
2021/12/06 10:30:36;;;;;;;;;;;;;;;1.87;87.00;97544.55;1738210;81;24423;-82
2021/12/06 10:33:04;;;;;;;;;;;;;;;1.85;87.02;97542.53;1721194;81;20244;-82
2021/12/06 10:35:30;;;;;;;;;;;;;;;1.86;87.04;97542.42;1732594;81;24775;-83
2021/12/06 10:37:57;;;;;;;;;;;;;;;1.90;87.06;97549.58;1728684;82;21971;-83
2021/12/06 10:40:27;;;;;;;;;;;;;;;1.83;87.04;97551.62;1727942;81;26613;-83
2021/12/06 10:42:54;;;;;;;;;;;;;;;1.78;87.01;97547.59;1741567;81;24536;-83
2021/12/06 10:45:22;;;;;;;;;;;;;;;1.76;86.99;97546.83;1750038;80;20322;-82
2021/12/06 10:48:08;;;;;;;;;;;;;;;1.75;86.97;97549.86;1748259;81;25007;-83
2021/12/06 10:50:35;;;;;;;;;;;;;;;1.74;86.94;97556.41;1744739;81;22834;-82
2021/12/06 10:53:02;;;;;;;;;;;;;;;1.70;86.92;97554.41;1738077;82;26725;-82
2021/12/06 10:55:30;;;;;;;;;;;;;;;1.69;86.92;97556.63;1726370;81;24697;-83
2021/12/06 10:57:58;;;;;;;;;;;;;;;1.72;86.96;97553.89;1729823;81;20210;-83
2021/12/06 11:00:35;;;;;;;;;;;;;;;1.76;86.98;97560.56;1732581;81;24800;-82
2021/12/06 11:03:02;;;;;;;;;;;;;;;1.81;87.02;97552.59;1734492;82;22112;-82
2021/12/06 11:05:30;;;;;;;;;;;;;;;1.84;87.07;97557.16;1738747;81;26269;-83
2021/12/06 11:07:57;;;;;;;;;;;;;;;1.82;87.07;97555.11;1745201;81;24464;-82
2021/12/06 11:10:24;;;;;;;;;;;;;;;1.78;87.09;97548.44;1722386;82;20275;-83
2021/12/06 11:12:52;;;;;;;;;;;;;;;1.81;87.11;97552.59;1742471;81;24752;-82
2021/12/06 11:15:18;;;;;;;;;;;;;;;1.76;87.11;97556.69;1735659;81;22162;-82
2021/12/06 11:17:44;;;;;;;;;;;;;;;1.79;87.11;97563.01;1736093;80;21176;-83
2021/12/06 11:20:12;;;;;;;;;;;;;;;1.80;87.11;97562.07;1735262;81;24406;-82
2021/12/06 11:22:40;;;;;;;;;;;;;;;1.85;87.12;97565.29;1683653;84;20471;-82
2021/12/06 11:25:08;;;;;;;;;;;;;;;1.87;87.14;97564.73;1689999;83;24291;-82
2021/12/06 11:27:39;;;;;;;;;;;;;;;1.91;87.17;97569.31;1710555;82;21928;-83
2021/12/06 11:30:07;;;;;;;;;;;;;;;1.90;87.19;97568.48;1731908;80;26692;-84
2021/12/06 11:32:43;;;;;;;;;;;;;;;1.84;87.17;97573.94;1731572;81;24274;-82
2021/12/06 11:35:13;;;;;;;;;;;;;;;1.84;87.18;97571.80;1716464;80;20247;-82
2021/12/06 11:37:41;;;;;;;;;;;;;;;1.85;87.19;97573.03;1742179;80;24768;-83
2021/12/06 11:40:12;;;;;;;;;;;;;;;1.87;87.19;97570.35;1736863;80;21991;-83
2021/12/06 11:42:45;;;;;;;;;;;;;;;1.87;87.17;97575.06;1737754;80;26084;-82
2021/12/06 11:45:13;;;;;;;;;;;;;;;1.86;87.16;97577.25;1730984;81;24656;-83
2021/12/06 11:47:39;;;;;;;;;;;;;;;1.83;87.16;97572.25;1720102;81;20294;-82
2021/12/06 11:50:08;;;;;;;;;;;;;;;1.79;87.13;97575.06;1729926;81;20229;-82
2021/12/06 11:52:35;;;;;;;;;;;;;;;1.74;87.11;97577.03;1736632;81;22178;-83
2021/12/06 11:55:05;;;;;;;;;;;;;;;1.69;87.08;97579.84;1736073;80;26866;-83
2021/12/06 11:57:40;;;;;;;;;;;;;;;1.68;87.07;97583.32;1740898;81;24458;-82
2021/12/06 12:00:09;;;;;;;;;;;;;;;1.68;87.08;97582.88;1726389;81;20420;-82
2021/12/06 12:02:40;;;;;;;;;;;;;;;1.64;87.06;97584.35;1732327;81;24646;-83
2021/12/06 12:05:18;;;;;;;;;;;;;;;1.60;87.03;97582.39;1738476;81;22156;-82
2021/12/06 12:07:43;;;;;;;;;;;;;;;1.60;87.03;97585.41;1700914;82;26023;-83
2021/12/06 12:10:13;;;;;;;;;;;;;;;1.55;87.02;97580.93;1718800;82;24757;-82
2021/12/06 12:12:41;;;;;;;;;;;;;;;1.58;87.03;97582.09;1749719;80;20248;-83
2021/12/06 12:15:07;;;;;;;;;;;;;;;1.63;87.05;97577.09;1742751;81;25479;-82
2021/12/06 12:17:35;;;;;;;;;;;;;;;1.66;87.07;97574.81;1739393;81;22052;-83
2021/12/06 12:20:05;;;;;;;;;;;;;;;1.67;87.11;97567.46;1711865;82;22096;-83
2021/12/06 12:22:35;;;;;;;;;;;;;;;1.73;87.13;97574.91;1739607;81;25462;-82
2021/12/06 12:25:08;;;;;;;;;;;;;;;1.74;87.18;97574.00;1740887;80;20244;-82
2021/12/06 12:27:38;;;;;;;;;;;;;;;1.69;87.17;97581.12;1743800;80;24810;-82
2021/12/06 12:30:00;;;;;;;;;;;;;;;1.65;87.17;97577.00;1640075;84;22040;-83
2021/12/06 12:32:31;;;;;;;;;;;;;;;1.60;87.16;97587.55;1711315;82;27018;-82
2021/12/06 12:34:57;;;;;;;;;;;;;;;1.58;87.11;97588.54;1687390;83;25286;-82
2021/12/06 12:37:23;;;;;;;;;;;;;;;1.55;87.11;97587.38;1699114;83;20242;-82
2021/12/06 12:40:03;;;;;;;;;;;;;;;1.56;87.08;97589.05;1729045;81;25037;-83
2021/12/06 12:42:29;;;;;;;;;;;;;;;1.52;87.07;97593.53;1738374;81;21903;-82
2021/12/06 12:44:57;;;;;;;;;;;;;;;1.47;87.04;97589.50;1750201;80;26001;-82
2021/12/06 12:47:27;;;;;;;;;;;;;;;1.42;86.99;97591.45;1736907;81;24497;-82
2021/12/06 12:49:58;;;;;;;;;;;;;;;1.36;86.95;97591.74;1744687;81;20247;-82
2021/12/06 12:52:35;;;;;;;;;;;;;;;1.36;86.94;97587.88;1737218;81;24799;-83
2021/12/06 12:55:01;;;;;;;;;;;;;;;1.34;86.91;97593.09;1734680;81;22746;-82
2021/12/06 12:57:29;;;;;;;;;;;;;;;1.34;86.90;97595.67;1733577;81;26172;-82
2021/12/06 12:59:57;;;;;;;;;;;;;;;1.34;86.89;97593.09;1735271;81;24580;-83
2021/12/06 13:02:29;;;;;;;;;;;;;;;1.35;86.93;97595.22;1738910;81;20318;-83
2021/12/06 13:05:04;;;;;;;;;;;;;;;1.32;86.94;97596.19;1739100;81;24835;-83
2021/12/06 13:07:32;;;;;;;;;;;;;;;1.29;86.94;97608.39;1739991;81;21458;-83
2021/12/06 13:10:18;;;;;;;;;;;;;;;1.27;86.96;97611.02;1738425;81;25975;-83